Andacollo, Argentina
Current Conditions -  °F | °C
As of 8:00 PM on Friday 24 Oct 2014 (Local Time) from SCIC Reporting Station
Clear Clear  
Wind Chill: 79°   Ceiling: Unl
Heat Index: 79°   Visibility: 6mi
Dew Point: 43°   Wind: 7mph
Humidity: 28%   Direction: 210°SSW
Pressure: 29.91"   Gusts: NA
Location:  37.05°S, 70.07°W
Report Text: SCIC 242300Z 21006KT CAVOK 26/06 Q1013
Loading
Personal Weather Stations






























Interactive Weather Map New forecast layout! Learn more

10-Day Weather Forecast

Advertisements
Track Severe Weather on mobile